Currently 57°F in Fallbrook, California, USA
57°F
57°F / 51°F
calm
0.00"
Monday, February 20, 2017 9:48 AM PST

Fallbrook, California Weather Summary
Last 36 Hours

Temperature Winds Hourly Humidity Dewpoint
Time Report Norm Report Norm Max Gusts Precip. Rpt. Norm Rpt. Norm Pressure
1,2Mon 09:48 AM  56.9°F  59°F  calm  1 mph  none  0.00"  84%  71%  52°F  49°F  30.29"
Mon 09:00 AM  55.4°F  56°F  calm  1 mph  none  0.00"  90%  76%  52°F  49°F  30.28"
Mon 08:00 AM  52.9°F  52°F  calm  1 mph  none  0.00"  96%  82%  52°F  46°F  30.26"
Mon 07:00 AM  51.6°F  49°F  calm  1 mph  none  0.00"  99%  83%  51°F  44°F  30.24"
Mon 06:00 AM  51.2°F  50°F  calm  1 mph  none  0.00"  99%  84%  51°F  45°F  30.22"
Mon 05:00 AM  51.1°F  50°F  calm  1 mph  none  0.00"  99%  84%  51°F  45°F  30.21"
Mon 04:00 AM  51.1°F  50°F  calm  1 mph  none  0.00"  98%  85%  51°F  46°F  30.20"
Mon 03:00 AM  51.2°F  50°F  calm  1 mph  none  0.00"  98%  85%  51°F  46°F  30.19"
Mon 02:00 AM  50.9°F  51°F  calm  calm  none  0.00"  99%  85%  51°F  46°F  30.19"
3Mon 01:40 AM  50.8°F  51°F  calm  1 mph  none  ----  98%  85%  50°F  47°F  30.18"
Mon 01:00 AM  51.2°F  51°F  calm  1 mph  none  0.00"  98%  85%  51°F  47°F  30.18"
Mon 12:00 AM  50.9°F  52°F  calm  1 mph  none  0.00"  98%  86%  50°F  48°F  30.19"
Sun 11:00 PM  51.2°F  52°F  calm  1 mph  5 mph  0.00"  97%  86%  50°F  48°F  30.17"
Sun 10:00 PM  51.2°F  53°F  calm  1 mph  none  0.00"  97%  86%  50°F  49°F  30.16"
Sun 09:00 PM  51.6°F  53°F  calm  1 mph  5 mph  0.00"  96%  86%  50°F  49°F  30.13"
Sun 08:00 PM  52.4°F  54°F  calm  1 mph  none  0.00"  96%  85%  51°F  50°F  30.12"
Sun 07:00 PM  52.0°F  55°F  calm  1 mph  3 mph  0.00"  96%  83%  51°F  50°F  30.08"
Sun 06:00 PM  52.6°F  57°F  1 mph S  1 mph  6 mph  0.00"  95%  79%  51°F  50°F  30.04"
Sun 05:00 PM  54.7°F  60°F  1 mph S  2 mph  11 mph  0.00"  89%  70%  51°F  50°F  30.02"
Sun 04:00 PM  56.8°F  63°F  4 mph SW  3 mph  11 mph  0.00"  87%  63%  53°F  50°F  30.02"
Sun 03:00 PM  57.1°F  65°F  5 mph S  4 mph  14 mph  0.00"  86%  60%  53°F  50°F  30.00"
Sun 02:00 PM  56.2°F  66°F  4 mph S  4 mph  11 mph  0.00"  91%  58%  54°F  50°F  30.00"
Sun 01:00 PM  56.3°F  66°F  3 mph SW  3 mph  13 mph  0.00"  95%  58%  55°F  50°F  29.99"
Sun 12:00 PM  55.1°F  65°F  5 mph S  3 mph  11 mph  0.01"  100%  59%  55°F  50°F  29.98"
Sun 11:00 AM  54.4°F  63°F  2 mph S  2 mph  11 mph  0.01"  100%  62%  54°F  49°F  29.99"
Sun 10:00 AM  53.5°F  60°F  1 mph S  2 mph  9 mph  0.05"  100%  68%  53°F  49°F  29.97"
Sun 09:00 AM  53.4°F  57°F  5 mph S  1 mph  12 mph  0.00"  100%  75%  53°F  49°F  29.93"
Sun 08:00 AM  52.9°F  52°F  calm  1 mph  none  0.00"  100%  81%  53°F  46°F  29.91"
Sun 07:00 AM  52.0°F  50°F  calm  calm  none  0.00"  100%  83%  52°F  44°F  29.88"
Sun 06:00 AM  51.8°F  50°F  calm  1 mph  none  0.00"  100%  83%  52°F  45°F  29.86"
Sun 05:00 AM  52.4°F  50°F  calm  1 mph  none  0.01"  100%  83%  52°F  45°F  29.84"
Sun 04:00 AM  52.3°F  50°F  calm  1 mph  none  0.00"  100%  84%  52°F  46°F  29.82"
Sun 03:00 AM  52.1°F  51°F  calm  1 mph  none  0.00"  100%  84%  52°F  46°F  29.80"
Sun 02:00 AM  52.1°F  51°F  calm  calm  none  0.00"  100%  84%  52°F  46°F  29.78"
Sun 01:00 AM  52.3°F  52°F  calm  1 mph  5 mph  0.00"  100%  85%  52°F  47°F  29.77"
Sun 12:00 AM  52.7°F  52°F  calm  1 mph  3 mph  0.00"  100%  85%  53°F  47°F  29.76"
Sat 11:00 PM  53.2°F  53°F  calm  1 mph  6 mph  0.03"  100%  85%  53°F  48°F  29.75"
Sat 10:00 PM  53.1°F  53°F  calm  1 mph  none  0.00"  100%  86%  53°F  49°F  29.72"

  1. Current weather data. No green row appears if the current weather data is also the high or low for the current day.
  2. High temperature for the current day.
  3. Low temperature for the current day.

The Fallbrook weather pages are a service of WeatherCurrents. Fallbrook, California is located in northern San Diego County, close to I15 and Camp Pendleton, and is home to ranches, avocado and citrus groves, and plant nurseries.
Copyright ©Mon Feb 20 09:48:57 PST 2017  WeatherCurrents. All rights reserved. - Submit questions and comments - Privacy Policy

This page automatically refreshes every 10 minutes.